Time;durP1;ratioP1;P1;durP2;ratioP2;P2;SDS_P1;SDS_P2;PMS_P1;PMS_P2;Temp;Humidity;BMP_temperature;BMP_pressure;BME280_temperature;BME280_humidity;BME280_pressure;Samples;Min_cycle;Max_cycle;Signal;HPM_P1;HPM_P2
2022/07/05 00:02:15;;;;;;;;;;;26.30;59.70;;;;;;5043280;28;87498;-43
2022/07/05 00:04:41;;;;;;;;;;;26.30;59.70;;;;;;5043135;28;87949;-43
2022/07/05 00:07:19;;;;;;;;;;;26.30;59.70;;;;;;5043815;28;86314;-43
2022/07/05 00:09:52;;;;;;;;;;;26.20;59.70;;;;;;5043465;27;87107;-43
2022/07/05 00:12:18;;;;;;;;;;;26.20;59.70;;;;;;5043057;28;87790;-43
2022/07/05 00:14:44;;;;;;;;;;;26.20;59.60;;;;;;5045156;28;88275;-46
2022/07/05 00:17:11;;;;;;;;;;;26.20;59.60;;;;;;5042653;28;89053;-45
2022/07/05 00:19:36;;;;;;;;;;;26.20;59.60;;;;;;5043076;28;87115;-42
2022/07/05 00:22:02;;;;;;;;;;;26.20;59.60;;;;;;5043041;28;86999;-44
2022/07/05 00:24:28;;;;;;;;;;;26.20;59.50;;;;;;5042855;28;86980;-43
2022/07/05 00:26:53;;;;;;;;;;;26.20;59.60;;;;;;5042623;27;87068;-43
2022/07/05 00:29:19;;;;;;;;;;;26.10;59.50;;;;;;5043143;28;87701;-43
2022/07/05 00:31:44;;;;;;;;;;;26.10;59.40;;;;;;5042952;28;86437;-44
2022/07/05 00:34:10;;;;;;;;;;;26.20;59.40;;;;;;5046017;28;86999;-43
2022/07/05 00:36:35;;;;;;;;;;;26.10;59.50;;;;;;5042424;28;87467;-44
2022/07/05 00:39:01;;;;;;;;;;;26.10;59.40;;;;;;5042092;28;88083;-44
2022/07/05 00:41:26;;;;;;;;;;;26.10;59.40;;;;;;5042846;28;86972;-43
2022/07/05 00:43:56;;;;;;;;;;;26.10;59.40;;;;;;5042031;28;89445;-45
2022/07/05 00:46:22;;;;;;;;;;;26.10;59.40;;;;;;5042114;28;87393;-43
2022/07/05 00:48:48;;;;;;;;;;;26.10;59.40;;;;;;5042661;27;87907;-43
2022/07/05 00:51:13;;;;;;;;;;;26.10;59.40;;;;;;5042503;28;87410;-43
2022/07/05 00:53:39;;;;;;;;;;;26.10;59.40;;;;;;5042843;28;87465;-43
2022/07/05 00:56:05;;;;;;;;;;;26.00;59.30;;;;;;5045580;27;87416;-43
2022/07/05 00:58:31;;;;;;;;;;;26.10;59.40;;;;;;5042278;28;87108;-44
2022/07/05 01:00:57;;;;;;;;;;;26.00;59.30;;;;;;5042372;28;87760;-44
2022/07/05 01:03:23;;;;;;;;;;;26.00;59.30;;;;;;5041483;28;89497;-43
2022/07/05 01:05:48;;;;;;;;;;;26.00;59.30;;;;;;5042299;28;87087;-46
2022/07/05 01:08:14;;;;;;;;;;;26.00;59.30;;;;;;5042555;27;87369;-44
2022/07/05 01:10:40;;;;;;;;;;;26.00;59.30;;;;;;5042147;28;88117;-43
2022/07/05 01:13:06;;;;;;;;;;;26.00;59.30;;;;;;5042502;28;87071;-43
2022/07/05 01:15:32;;;;;;;;;;;25.90;59.40;;;;;;5042010;27;87458;-43
2022/07/05 01:17:58;;;;;;;;;;;25.90;59.90;;;;;;5045338;28;88063;-45
2022/07/05 01:20:23;;;;;;;;;;;25.90;59.30;;;;;;5042877;27;86696;-43
2022/07/05 01:22:53;;;;;;;;;;;25.90;59.30;;;;;;5041697;28;89189;-43
2022/07/05 01:25:19;;;;;;;;;;;25.90;59.20;;;;;;5042614;28;87124;-45
2022/07/05 01:27:46;;;;;;;;;;;25.80;59.20;;;;;;5041938;27;87811;-46
2022/07/05 01:30:11;;;;;;;;;;;25.80;59.40;;;;;;5041657;28;88147;-43
2022/07/05 01:32:37;;;;;;;;;;;25.80;59.30;;;;;;5042005;28;86779;-43
2022/07/05 01:35:03;;;;;;;;;;;25.80;59.20;;;;;;5042201;27;87598;-43
2022/07/05 01:37:29;;;;;;;;;;;25.80;59.20;;;;;;5041828;28;88409;-43
2022/07/05 01:39:55;;;;;;;;;;;25.70;59.20;;;;;;5046510;28;87070;-43
2022/07/05 01:42:21;;;;;;;;;;;25.70;59.30;;;;;;5045191;28;88212;-43
2022/07/05 01:44:46;;;;;;;;;;;25.70;59.20;;;;;;5045287;28;87733;-43
2022/07/05 01:47:13;;;;;;;;;;;25.70;59.30;;;;;;5045752;28;87022;-44
2022/07/05 01:49:40;;;;;;;;;;;25.70;59.30;;;;;;5045011;28;88067;-44
2022/07/05 01:52:10;;;;;;;;;;;25.70;59.20;;;;;;5044844;28;88079;-45
2022/07/05 01:54:36;;;;;;;;;;;25.70;59.30;;;;;;5045057;27;89631;-43
2022/07/05 01:57:03;;;;;;;;;;;25.60;59.20;;;;;;5044958;28;87943;-44
2022/07/05 01:59:29;;;;;;;;;;;25.60;59.30;;;;;;5044820;28;87538;-45
2022/07/05 02:01:55;;;;;;;;;;;25.60;59.20;;;;;;5047859;27;87041;-43
2022/07/05 02:04:21;;;;;;;;;;;25.60;59.20;;;;;;5045408;28;87140;-44
2022/07/05 02:06:46;;;;;;;;;;;25.60;59.20;;;;;;5045360;28;87417;-43
2022/07/05 02:09:12;;;;;;;;;;;25.60;59.30;;;;;;5045257;28;86769;-43
2022/07/05 02:11:37;;;;;;;;;;;25.50;59.10;;;;;;5045071;28;86952;-43
2022/07/05 02:14:03;;;;;;;;;;;25.50;59.20;;;;;;5044927;27;87555;-43
2022/07/05 02:16:29;;;;;;;;;;;25.50;59.20;;;;;;5043718;28;90261;-43
2022/07/05 02:18:55;;;;;;;;;;;25.50;59.20;;;;;;5044907;28;87113;-43
2022/07/05 02:21:20;;;;;;;;;;;25.50;59.30;;;;;;5045269;27;86975;-43
2022/07/05 02:23:46;;;;;;;;;;;25.40;59.20;;;;;;5047082;28;88376;-43
2022/07/05 02:26:11;;;;;;;;;;;25.40;59.20;;;;;;5044911;27;87214;-44
2022/07/05 02:28:37;;;;;;;;;;;25.40;59.30;;;;;;5044542;28;88121;-43
2022/07/05 02:31:03;;;;;;;;;;;25.40;59.20;;;;;;5044842;28;87066;-45
2022/07/05 02:33:28;;;;;;;;;;;25.40;59.20;;;;;;5045360;28;87033;-43
2022/07/05 02:35:54;;;;;;;;;;;25.40;59.20;;;;;;5044349;28;88006;-44
2022/07/05 02:38:19;;;;;;;;;;;25.40;59.10;;;;;;5044839;28;87219;-43
2022/07/05 02:40:45;;;;;;;;;;;25.30;59.10;;;;;;5044205;28;88141;-43
2022/07/05 02:43:10;;;;;;;;;;;25.30;59.30;;;;;;5046975;28;88403;-43
2022/07/05 02:45:36;;;;;;;;;;;25.30;59.30;;;;;;5043861;28;87403;-43
2022/07/05 02:48:01;;;;;;;;;;;25.30;59.30;;;;;;5044286;28;88108;-43
2022/07/05 02:50:27;;;;;;;;;;;25.30;59.30;;;;;;5044232;27;87092;-43
2022/07/05 02:52:52;;;;;;;;;;;25.20;59.20;;;;;;5044566;27;87527;-43
2022/07/05 02:55:18;;;;;;;;;;;25.20;59.20;;;;;;5044218;28;88065;-43
2022/07/05 02:57:44;;;;;;;;;;;25.20;59.30;;;;;;5044877;28;86854;-43
2022/07/05 03:00:10;;;;;;;;;;;25.20;59.30;;;;;;5044499;27;87643;-43
2022/07/05 03:02:35;;;;;;;;;;;25.20;59.30;;;;;;5044063;28;87075;-43
2022/07/05 03:05:01;;;;;;;;;;;25.10;59.20;;;;;;5046202;28;88131;-45
2022/07/05 03:07:26;;;;;;;;;;;25.10;59.20;;;;;;5043926;28;88020;-43
2022/07/05 03:09:52;;;;;;;;;;;25.10;59.20;;;;;;5044356;28;87217;-43
2022/07/05 03:12:17;;;;;;;;;;;25.10;59.20;;;;;;5044391;28;86821;-42
2022/07/05 03:14:43;;;;;;;;;;;25.10;59.30;;;;;;5043648;28;88123;-43
2022/07/05 03:17:08;;;;;;;;;;;25.10;59.20;;;;;;5044234;28;87046;-44
2022/07/05 03:19:34;;;;;;;;;;;25.10;59.30;;;;;;5042468;28;91342;-43
2022/07/05 03:21:59;;;;;;;;;;;25.00;59.20;;;;;;5044271;28;87290;-43
2022/07/05 03:24:25;;;;;;;;;;;25.00;59.20;;;;;;5043916;28;86878;-45
2022/07/05 03:26:50;;;;;;;;;;;25.00;59.20;;;;;;5046803;27;86887;-43
2022/07/05 03:29:16;;;;;;;;;;;25.00;59.20;;;;;;5043287;28;88159;-43
2022/07/05 03:31:41;;;;;;;;;;;25.00;59.30;;;;;;5043988;27;88448;-43
2022/07/05 03:34:07;;;;;;;;;;;24.90;59.30;;;;;;5043530;28;88103;-43
2022/07/05 03:36:32;;;;;;;;;;;24.90;59.20;;;;;;5043393;28;87079;-43
2022/07/05 03:38:58;;;;;;;;;;;24.90;59.30;;;;;;5043708;28;87455;-43
2022/07/05 03:41:24;;;;;;;;;;;24.90;59.30;;;;;;5043592;28;87972;-43
2022/07/05 03:43:49;;;;;;;;;;;24.80;59.30;;;;;;5043642;28;87189;-44
2022/07/05 03:46:14;;;;;;;;;;;24.80;59.20;;;;;;5043729;28;87362;-43
2022/07/05 03:48:40;;;;;;;;;;;24.80;59.30;;;;;;5046068;28;88619;-43
2022/07/05 03:51:05;;;;;;;;;;;24.80;59.30;;;;;;5043658;28;87275;-44
2022/07/05 03:53:31;;;;;;;;;;;24.80;59.30;;;;;;5042593;28;88990;-43
2022/07/05 03:55:56;;;;;;;;;;;24.80;59.30;;;;;;5043315;28;87013;-43
2022/07/05 03:58:22;;;;;;;;;;;24.80;59.30;;;;;;5043468;28;87410;-45
2022/07/05 04:00:47;;;;;;;;;;;24.70;59.20;;;;;;5042875;28;87811;-43
2022/07/05 04:03:13;;;;;;;;;;;24.70;59.20;;;;;;5042761;27;87057;-43
2022/07/05 04:05:39;;;;;;;;;;;24.70;59.30;;;;;;5043225;28;87630;-45
2022/07/05 04:08:04;;;;;;;;;;;24.70;59.30;;;;;;5043032;28;87948;-43
2022/07/05 04:10:30;;;;;;;;;;;24.70;59.20;;;;;;5046616;28;86329;-43
2022/07/05 04:12:56;;;;;;;;;;;24.70;59.20;;;;;;5043092;28;87283;-43
2022/07/05 04:15:21;;;;;;;;;;;24.70;59.20;;;;;;5043096;28;87050;-43
2022/07/05 04:17:54;;;;;;;;;;;24.70;59.30;;;;;;5042527;27;88014;-43
2022/07/05 04:20:22;;;;;;;;;;;24.60;59.20;;;;;;5043048;28;88101;-43
2022/07/05 04:22:49;;;;;;;;;;;24.60;59.20;;;;;;5042629;28;87093;-43
2022/07/05 04:25:18;;;;;;;;;;;24.60;59.40;;;;;;5043068;27;87357;-43
2022/07/05 04:27:47;;;;;;;;;;;24.60;59.30;;;;;;5042422;28;87981;-43
2022/07/05 04:30:13;;;;;;;;;;;24.60;59.30;;;;;;5042755;28;87015;-44
2022/07/05 04:32:38;;;;;;;;;;;24.60;59.30;;;;;;5045568;27;87173;-43
2022/07/05 04:35:04;;;;;;;;;;;24.60;59.30;;;;;;5043464;28;86309;-43
2022/07/05 04:37:29;;;;;;;;;;;24.60;59.40;;;;;;5043160;27;86968;-43
2022/07/05 04:39:55;;;;;;;;;;;24.60;59.30;;;;;;5042582;28;88412;-43
2022/07/05 04:42:21;;;;;;;;;;;24.50;59.30;;;;;;5042262;28;88088;-43
2022/07/05 04:44:46;;;;;;;;;;;24.50;59.30;;;;;;5042173;28;88512;-43
2022/07/05 04:47:11;;;;;;;;;;;24.60;59.30;;;;;;5042306;28;87605;-44
2022/07/05 04:49:37;;;;;;;;;;;24.60;59.40;;;;;;5042799;28;87125;-43
2022/07/05 04:52:03;;;;;;;;;;;24.60;59.40;;;;;;5044992;27;88971;-43
2022/07/05 04:54:28;;;;;;;;;;;24.60;59.30;;;;;;5042377;28;87062;-43
2022/07/05 04:56:54;;;;;;;;;;;24.50;59.40;;;;;;5042684;28;87475;-43
2022/07/05 04:59:19;;;;;;;;;;;24.50;59.50;;;;;;5042545;28;87318;-43
2022/07/05 05:01:45;;;;;;;;;;;24.50;59.50;;;;;;5042784;28;87121;-43
2022/07/05 05:04:10;;;;;;;;;;;24.50;59.40;;;;;;5042525;27;87390;-43
2022/07/05 05:06:36;;;;;;;;;;;24.50;59.50;;;;;;5041452;28;88182;-43
2022/07/05 05:09:02;;;;;;;;;;;24.50;59.50;;;;;;5042562;28;87151;-43
2022/07/05 05:11:27;;;;;;;;;;;24.50;59.50;;;;;;5042275;27;88915;-43
2022/07/05 05:13:53;;;;;;;;;;;24.50;59.50;;;;;;5046316;27;89594;-43
2022/07/05 05:16:18;;;;;;;;;;;24.50;59.50;;;;;;5045999;28;87400;-43
2022/07/05 05:18:44;;;;;;;;;;;24.50;59.60;;;;;;5045662;28;88039;-43
2022/07/05 05:21:09;;;;;;;;;;;24.50;59.70;;;;;;5046031;28;87085;-43
2022/07/05 05:23:35;;;;;;;;;;;24.50;59.60;;;;;;5046191;28;87510;-44
2022/07/05 05:26:00;;;;;;;;;;;24.50;59.70;;;;;;5045616;28;88346;-42
2022/07/05 05:28:26;;;;;;;;;;;24.50;59.80;;;;;;5045716;28;87111;-43
2022/07/05 05:30:51;;;;;;;;;;;24.40;59.70;;;;;;5043696;28;90644;-43
2022/07/05 05:33:17;;;;;;;;;;;24.50;59.80;;;;;;5045531;28;87151;-43
2022/07/05 05:35:42;;;;;;;;;;;24.50;59.90;;;;;;5048673;28;87136;-43
2022/07/05 05:38:08;;;;;;;;;;;24.40;60.00;;;;;;5045192;28;88161;-43
2022/07/05 05:40:34;;;;;;;;;;;24.40;60.10;;;;;;5045765;28;87098;-43
2022/07/05 05:43:00;;;;;;;;;;;24.40;60.00;;;;;;5045372;27;88770;-43
2022/07/05 05:45:26;;;;;;;;;;;24.50;60.60;;;;;;5044309;28;89493;-43
2022/07/05 05:47:51;;;;;;;;;;;24.50;60.00;;;;;;5045940;28;86368;-43
2022/07/05 05:50:27;;;;;;;;;;;24.50;60.00;;;;;;5045457;28;86853;-43
2022/07/05 05:52:52;;;;;;;;;;;24.50;60.00;;;;;;5045158;28;87900;-42
2022/07/05 05:55:19;;;;;;;;;;;24.50;60.00;;;;;;5044910;28;88148;-43
2022/07/05 05:57:44;;;;;;;;;;;24.50;60.00;;;;;;5047679;27;88349;-43
2022/07/05 06:00:11;;;;;;;;;;;24.50;60.10;;;;;;5045264;28;87183;-43
2022/07/05 06:02:36;;;;;;;;;;;24.50;60.10;;;;;;5045323;27;87321;-43
2022/07/05 06:05:02;;;;;;;;;;;24.50;60.10;;;;;;5044974;28;88230;-43
2022/07/05 06:07:27;;;;;;;;;;;24.50;60.10;;;;;;5045378;28;87147;-43
2022/07/05 06:09:53;;;;;;;;;;;24.50;60.10;;;;;;5045079;27;88023;-43
2022/07/05 06:12:19;;;;;;;;;;;24.50;60.10;;;;;;5045089;28;88668;-42
2022/07/05 06:14:44;;;;;;;;;;;24.50;60.10;;;;;;5044892;28;87147;-43
2022/07/05 06:17:10;;;;;;;;;;;24.50;60.00;;;;;;5045112;28;87782;-43
2022/07/05 06:19:35;;;;;;;;;;;24.50;60.00;;;;;;5047204;28;88706;-43
2022/07/05 06:22:01;;;;;;;;;;;24.60;60.10;;;;;;5044742;27;89907;-43
2022/07/05 06:24:26;;;;;;;;;;;24.60;60.10;;;;;;5044350;27;87985;-44
2022/07/05 06:26:52;;;;;;;;;;;24.50;60.10;;;;;;5044494;28;87082;-43
2022/07/05 06:29:17;;;;;;;;;;;24.50;60.20;;;;;;5044865;28;87573;-43
2022/07/05 06:31:43;;;;;;;;;;;24.60;60.10;;;;;;5044310;28;88984;-43
2022/07/05 06:34:09;;;;;;;;;;;24.50;60.10;;;;;;5044581;28;87154;-43
2022/07/05 06:36:34;;;;;;;;;;;24.50;60.20;;;;;;5045360;27;87402;-43
2022/07/05 06:39:00;;;;;;;;;;;24.50;60.20;;;;;;5044302;28;88011;-43
2022/07/05 06:41:25;;;;;;;;;;;24.60;60.20;;;;;;5047689;28;87559;-43
2022/07/05 06:43:51;;;;;;;;;;;24.60;60.20;;;;;;5043407;28;88458;-42
2022/07/05 06:46:16;;;;;;;;;;;24.60;60.20;;;;;;5044318;28;87017;-43
2022/07/05 06:48:41;;;;;;;;;;;24.50;60.40;;;;;;5044527;28;87270;-43
2022/07/05 06:51:07;;;;;;;;;;;24.60;60.40;;;;;;5044169;28;88508;-43
2022/07/05 06:53:32;;;;;;;;;;;24.60;60.30;;;;;;5044686;28;87140;-43
2022/07/05 06:55:58;;;;;;;;;;;24.60;60.40;;;;;;5044482;28;87917;-41
2022/07/05 06:58:24;;;;;;;;;;;24.60;60.40;;;;;;5044059;28;88117;-43
2022/07/05 07:00:49;;;;;;;;;;;24.60;60.30;;;;;;5047654;28;86388;-43
2022/07/05 07:03:15;;;;;;;;;;;24.60;60.30;;;;;;5044159;28;88026;-43
2022/07/05 07:05:41;;;;;;;;;;;24.50;60.30;;;;;;5044530;28;87090;-43
2022/07/05 07:10:50;;;;;;;;;;;24.60;60.50;;;;;;5043899;28;87078;-43
2022/07/05 07:13:16;;;;;;;;;;;24.60;60.50;;;;;;5044060;28;87091;-42
2022/07/05 07:15:41;;;;;;;;;;;24.60;60.40;;;;;;5044186;28;87518;-43
2022/07/05 07:18:07;;;;;;;;;;;24.60;60.50;;;;;;5043882;28;87988;-43
2022/07/05 07:20:32;;;;;;;;;;;24.60;60.50;;;;;;5044055;28;87239;-43
2022/07/05 07:22:58;;;;;;;;;;;24.60;60.50;;;;;;5046558;28;87516;-43
2022/07/05 07:25:24;;;;;;;;;;;24.60;60.50;;;;;;5044369;28;86431;-41
2022/07/05 07:27:51;;;;;;;;;;;24.60;60.60;;;;;;5044121;28;87044;-43
2022/07/05 07:30:18;;;;;;;;;;;24.50;60.60;;;;;;5043708;28;87971;-42
2022/07/05 07:32:44;;;;;;;;;;;24.50;60.50;;;;;;5043246;28;88016;-43
2022/07/05 07:35:09;;;;;;;;;;;24.50;60.50;;;;;;5043853;28;88497;-43
2022/07/05 07:37:35;;;;;;;;;;;24.60;60.60;;;;;;5042196;28;88140;-43
2022/07/05 07:40:02;;;;;;;;;;;24.50;60.60;;;;;;5043537;28;86887;-43
2022/07/05 07:42:28;;;;;;;;;;;24.60;60.70;;;;;;5043359;27;89038;-44
2022/07/05 07:44:53;;;;;;;;;;;24.60;60.60;;;;;;5045590;28;89445;-43
2022/07/05 07:47:19;;;;;;;;;;;24.60;60.60;;;;;;5043557;28;87547;-43
2022/07/05 07:49:45;;;;;;;;;;;24.60;60.60;;;;;;5043749;28;87341;-43
2022/07/05 07:52:10;;;;;;;;;;;24.60;60.60;;;;;;5043561;28;87307;-43
2022/07/05 07:54:36;;;;;;;;;;;24.60;60.60;;;;;;5043194;27;88824;-42
2022/07/05 07:57:04;;;;;;;;;;;24.60;60.60;;;;;;5042300;28;88981;-43
2022/07/05 07:59:33;;;;;;;;;;;24.60;60.70;;;;;;5043225;28;87034;-45
2022/07/05 08:01:58;;;;;;;;;;;24.60;60.60;;;;;;5043297;27;88759;-43
2022/07/05 08:04:24;;;;;;;;;;;24.60;60.70;;;;;;5042996;28;88184;-43
2022/07/05 08:06:49;;;;;;;;;;;24.60;61.10;;;;;;5046442;28;87122;-43
2022/07/05 08:09:15;;;;;;;;;;;24.60;60.60;;;;;;5042894;28;88046;-42
2022/07/05 08:11:41;;;;;;;;;;;24.60;60.60;;;;;;5043303;28;87085;-42
2022/07/05 08:14:06;;;;;;;;;;;24.60;60.50;;;;;;5043849;27;86380;-43
2022/07/05 08:16:32;;;;;;;;;;;24.60;60.60;;;;;;5042738;28;88541;-43
2022/07/05 08:21:42;;;;;;;;;;;24.70;60.60;;;;;;5042743;28;87982;-43
2022/07/05 08:24:09;;;;;;;;;;;24.60;60.70;;;;;;5042484;28;87625;-43
2022/07/05 08:26:35;;;;;;;;;;;24.70;60.60;;;;;;5042972;28;87109;-43
2022/07/05 08:29:02;;;;;;;;;;;24.70;60.60;;;;;;5045565;27;87508;-43
2022/07/05 08:31:28;;;;;;;;;;;24.70;60.60;;;;;;5042854;28;87105;-43
2022/07/05 08:33:53;;;;;;;;;;;24.70;60.60;;;;;;5042953;27;87432;-43
2022/07/05 08:36:19;;;;;;;;;;;24.70;60.60;;;;;;5042625;28;87851;-43
2022/07/05 08:38:44;;;;;;;;;;;24.70;60.60;;;;;;5043370;28;86413;-44
2022/07/05 08:41:10;;;;;;;;;;;24.70;60.60;;;;;;5042965;28;87028;-43
2022/07/05 08:43:44;;;;;;;;;;;24.70;60.60;;;;;;5042719;28;87686;-43
2022/07/05 08:46:11;;;;;;;;;;;24.70;60.60;;;;;;5041622;28;88083;-43
2022/07/05 08:48:41;;;;;;;;;;;24.70;60.60;;;;;;5045023;28;88471;-44
2022/07/05 08:51:14;;;;;;;;;;;24.70;60.60;;;;;;5042669;28;87076;-43
2022/07/05 08:53:41;;;;;;;;;;;24.70;60.50;;;;;;5042575;27;88742;-43
2022/07/05 08:56:10;;;;;;;;;;;24.80;60.60;;;;;;5042209;28;88144;-42
2022/07/05 08:58:36;;;;;;;;;;;24.80;60.60;;;;;;5042397;28;87162;-43
2022/07/05 09:01:01;;;;;;;;;;;24.80;60.60;;;;;;5042236;28;88826;-43
2022/07/05 09:03:31;;;;;;;;;;;24.80;60.60;;;;;;5042619;28;87628;-43
2022/07/05 09:05:58;;;;;;;;;;;24.80;60.60;;;;;;5042146;28;87107;-43
2022/07/05 09:08:24;;;;;;;;;;;24.80;60.70;;;;;;5042575;27;87357;-43
2022/07/05 09:10:50;;;;;;;;;;;24.80;60.60;;;;;;5044471;28;88659;-43
2022/07/05 09:13:16;;;;;;;;;;;24.80;60.60;;;;;;5042661;27;88384;-43
2022/07/05 09:15:42;;;;;;;;;;;24.90;60.60;;;;;;5042175;28;88262;-43
2022/07/05 09:18:09;;;;;;;;;;;24.80;60.60;;;;;;5042277;28;87042;-43
2022/07/05 09:20:34;;;;;;;;;;;24.90;60.70;;;;;;5042106;27;87563;-43
2022/07/05 09:23:00;;;;;;;;;;;24.90;60.70;;;;;;5041892;28;88133;-43
2022/07/05 09:25:29;;;;;;;;;;;24.90;60.70;;;;;;5042077;28;87098;-42
2022/07/05 09:27:56;;;;;;;;;;;24.90;60.70;;;;;;5042695;27;87404;-41
2022/07/05 09:30:25;;;;;;;;;;;24.90;60.60;;;;;;5041614;28;89600;-41
2022/07/05 09:33:19;;;;;;;;;;;24.90;60.50;;;;;;5045298;28;87178;-42
2022/07/05 09:35:57;;;;;;;;;;;25.00;60.50;;;;;;5031449;28;88865;-43
2022/07/05 09:38:23;;;;;;;;;;;25.00;60.50;;;;;;5041766;28;87126;-44
2022/07/05 09:40:51;;;;;;;;;;;25.00;60.50;;;;;;5041865;27;89045;-42
2022/07/05 09:43:17;;;;;;;;;;;25.00;60.50;;;;;;5041841;28;88271;-41
2022/07/05 09:45:49;;;;;;;;;;;25.00;60.50;;;;;;5041193;28;87107;-42
2022/07/05 09:48:15;;;;;;;;;;;25.00;60.50;;;;;;5042198;27;87392;-43
2022/07/05 09:50:40;;;;;;;;;;;25.00;60.50;;;;;;5041556;28;88034;-43
2022/07/05 09:53:06;;;;;;;;;;;25.10;60.60;;;;;;5042490;28;86404;-43
2022/07/05 09:55:32;;;;;;;;;;;25.10;60.60;;;;;;5044628;28;86989;-42
2022/07/05 09:57:58;;;;;;;;;;;25.10;60.50;;;;;;5041740;28;87159;-42
2022/07/05 10:00:24;;;;;;;;;;;25.10;60.50;;;;;;5042178;27;88085;-43
2022/07/05 10:02:51;;;;;;;;;;;25.10;60.40;;;;;;5044776;28;88482;-44
2022/07/05 10:05:21;;;;;;;;;;;25.20;60.50;;;;;;5045325;28;87085;-42
2022/07/05 10:07:50;;;;;;;;;;;25.20;60.50;;;;;;5045425;27;88593;-43
2022/07/05 10:10:17;;;;;;;;;;;25.20;60.50;;;;;;5044513;28;89293;-42
2022/07/05 10:12:43;;;;;;;;;;;25.20;60.50;;;;;;5044745;28;87379;-42
2022/07/05 10:15:12;;;;;;;;;;;25.20;60.50;;;;;;5045181;27;88048;-43
2022/07/05 10:17:43;;;;;;;;;;;25.20;60.40;;;;;;5047962;28;87251;-43
2022/07/05 10:20:28;;;;;;;;;;;25.30;60.50;;;;;;5045171;27;87451;-42
2022/07/05 10:22:53;;;;;;;;;;;25.30;60.50;;;;;;5044305;28;88877;-42
2022/07/05 10:25:19;;;;;;;;;;;25.30;60.50;;;;;;5044395;28;88155;-45
2022/07/05 10:27:45;;;;;;;;;;;25.30;60.60;;;;;;5044693;28;88564;-43
2022/07/05 10:30:11;;;;;;;;;;;25.30;60.40;;;;;;5044550;28;87947;-41
2022/07/05 10:32:37;;;;;;;;;;;25.30;60.50;;;;;;5045061;28;87065;-43
2022/07/05 10:35:03;;;;;;;;;;;25.40;60.50;;;;;;5044833;27;87960;-42
2022/07/05 10:37:30;;;;;;;;;;;25.40;60.50;;;;;;5044395;28;87850;-42
2022/07/05 10:39:57;;;;;;;;;;;25.40;60.50;;;;;;5047665;28;87235;-42
2022/07/05 10:42:24;;;;;;;;;;;25.40;60.50;;;;;;5044942;28;86746;-42
2022/07/05 10:44:49;;;;;;;;;;;25.50;60.50;;;;;;5043965;28;87030;-43
2022/07/05 10:47:15;;;;;;;;;;;25.50;60.50;;;;;;5044370;27;89379;-43
2022/07/05 10:49:41;;;;;;;;;;;25.50;60.50;;;;;;5043580;28;88130;-43
2022/07/05 10:52:23;;;;;;;;;;;25.50;60.50;;;;;;5044183;28;87273;-42
2022/07/05 10:55:08;;;;;;;;;;;25.50;60.50;;;;;;5044288;27;87459;-42
2022/07/05 10:57:33;;;;;;;;;;;25.60;60.50;;;;;;5043840;28;89338;-42
2022/07/05 11:00:06;;;;;;;;;;;25.60;60.60;;;;;;5047545;28;87229;-42
2022/07/05 11:02:31;;;;;;;;;;;25.60;60.50;;;;;;5043962;28;89512;-42
2022/07/05 11:04:57;;;;;;;;;;;25.60;60.40;;;;;;5044491;28;87061;-43
2022/07/05 11:07:41;;;;;;;;;;;25.70;60.50;;;;;;5044630;27;87406;-42
2022/07/05 11:10:07;;;;;;;;;;;25.70;60.50;;;;;;5043883;27;87883;-42
2022/07/05 11:12:38;;;;;;;;;;;25.70;60.40;;;;;;5043844;27;86993;-42
2022/07/05 11:15:06;;;;;;;;;;;25.70;60.40;;;;;;5043649;27;88112;-42
2022/07/05 11:17:32;;;;;;;;;;;25.70;60.40;;;;;;5043506;28;88395;-42
2022/07/05 11:19:57;;;;;;;;;;;25.70;60.40;;;;;;5043902;28;87126;-42
2022/07/05 11:22:23;;;;;;;;;;;25.80;60.40;;;;;;5046768;28;87655;-42
2022/07/05 11:24:49;;;;;;;;;;;25.80;60.40;;;;;;5043846;28;87171;-43
2022/07/05 11:27:14;;;;;;;;;;;25.80;60.30;;;;;;5044032;27;86963;-44
2022/07/05 11:29:49;;;;;;;;;;;25.90;60.30;;;;;;5043555;28;88040;-42
2022/07/05 11:32:14;;;;;;;;;;;25.90;60.30;;;;;;5044409;28;86358;-42
2022/07/05 11:34:41;;;;;;;;;;;25.90;60.30;;;;;;5043624;28;87072;-42
2022/07/05 11:37:16;;;;;;;;;;;25.90;60.30;;;;;;5043530;28;87955;-42
2022/07/05 11:39:41;;;;;;;;;;;25.90;60.20;;;;;;5042961;28;88034;-43
2022/07/05 11:42:10;;;;;;;;;;;25.90;60.30;;;;;;5043984;28;88304;-42
2022/07/05 11:44:36;;;;;;;;;;;26.00;60.20;;;;;;5045746;28;88033;-42
2022/07/05 11:47:02;;;;;;;;;;;26.00;60.30;;;;;;5043706;28;87328;-42
2022/07/05 11:49:28;;;;;;;;;;;26.00;60.20;;;;;;5043540;28;87033;-43
2022/07/05 11:51:57;;;;;;;;;;;26.00;60.10;;;;;;5043444;28;87823;-42
2022/07/05 11:54:30;;;;;;;;;;;26.00;60.20;;;;;;5043897;28;87482;-42
2022/07/05 11:56:56;;;;;;;;;;;26.10;60.20;;;;;;5043667;28;87298;-42
2022/07/05 11:59:23;;;;;;;;;;;26.10;60.20;;;;;;5043500;28;87764;-43
2022/07/05 12:01:48;;;;;;;;;;;26.10;60.00;;;;;;5042070;28;90685;-44
2022/07/05 12:04:20;;;;;;;;;;;26.20;60.10;;;;;;5042338;28;88998;-44
2022/07/05 12:06:48;;;;;;;;;;;26.20;60.10;;;;;;5046448;28;86977;-42
2022/07/05 12:09:14;;;;;;;;;;;26.20;60.00;;;;;;5042954;28;88143;-42
2022/07/05 12:14:23;;;;;;;;;;;26.20;60.00;;;;;;5043455;28;86944;-42
2022/07/05 12:16:50;;;;;;;;;;;26.20;60.00;;;;;;5042462;28;88509;-42
2022/07/05 12:19:26;;;;;;;;;;;26.30;60.00;;;;;;5043142;28;87137;-43
2022/07/05 12:21:52;;;;;;;;;;;26.30;60.00;;;;;;5043531;27;87458;-43
2022/07/05 12:24:18;;;;;;;;;;;26.30;60.00;;;;;;5041590;27;88172;-43
2022/07/05 12:26:44;;;;;;;;;;;26.30;60.00;;;;;;5042742;28;87445;-43
2022/07/05 12:29:10;;;;;;;;;;;26.30;59.90;;;;;;5045101;27;88005;-43
2022/07/05 12:31:35;;;;;;;;;;;26.30;59.90;;;;;;5043156;28;87157;-41
2022/07/05 12:34:16;;;;;;;;;;;26.40;60.00;;;;;;5042701;27;88841;-42
2022/07/05 12:36:44;;;;;;;;;;;26.40;59.90;;;;;;5042659;28;88023;-44
2022/07/05 12:39:10;;;;;;;;;;;26.40;60.00;;;;;;5042733;28;86966;-46
2022/07/05 12:41:41;;;;;;;;;;;26.40;59.90;;;;;;5042817;28;87690;-42
2022/07/05 12:44:07;;;;;;;;;;;26.50;60.00;;;;;;5042573;28;87729;-44
2022/07/05 12:46:37;;;;;;;;;;;26.50;59.90;;;;;;5043261;28;86436;-42
2022/07/05 12:49:03;;;;;;;;;;;26.50;60.00;;;;;;5042595;28;88199;-43
2022/07/05 12:51:35;;;;;;;;;;;26.50;60.00;;;;;;5045410;28;88131;-43
2022/07/05 12:59:34;;;;;;;;;;;26.50;60.00;;;;;;5042663;28;87095;-42
2022/07/05 13:02:00;;;;;;;;;;;26.50;59.90;;;;;;5042760;27;87762;-42
2022/07/05 13:04:25;;;;;;;;;;;26.60;59.90;;;;;;5042097;28;87895;-43
2022/07/05 13:06:55;;;;;;;;;;;26.60;59.90;;;;;;5042550;28;87109;-42
2022/07/05 13:09:32;;;;;;;;;;;26.70;59.80;;;;;;5042360;27;87075;-43
2022/07/05 13:12:08;;;;;;;;;;;26.70;59.80;;;;;;5045499;28;88566;-42
2022/07/05 13:14:34;;;;;;;;;;;26.70;59.80;;;;;;5042525;27;86972;-43
2022/07/05 13:17:00;;;;;;;;;;;26.70;59.80;;;;;;5042110;28;87974;-42
2022/07/05 13:19:25;;;;;;;;;;;26.80;59.80;;;;;;5041717;28;88063;-42
2022/07/05 13:21:51;;;;;;;;;;;26.80;59.80;;;;;;5042454;28;88385;-43
2022/07/05 13:24:17;;;;;;;;;;;26.80;59.80;;;;;;5041809;28;87759;-43
2022/07/05 13:26:42;;;;;;;;;;;26.80;59.80;;;;;;5042378;28;87130;-42
2022/07/05 13:29:08;;;;;;;;;;;26.80;59.90;;;;;;5042431;28;87392;-42
2022/07/05 13:31:33;;;;;;;;;;;26.80;60.30;;;;;;5041800;28;87224;-42
2022/07/05 13:33:59;;;;;;;;;;;26.80;59.80;;;;;;5045045;28;86998;-42
2022/07/05 13:36:25;;;;;;;;;;;26.80;59.70;;;;;;5044728;28;86616;-43
2022/07/05 13:38:51;;;;;;;;;;;26.90;59.60;;;;;;5045708;28;86897;-43
2022/07/05 13:41:16;;;;;;;;;;;26.80;59.50;;;;;;5045591;27;89004;-42
2022/07/05 13:43:44;;;;;;;;;;;26.90;59.60;;;;;;5044626;28;89506;-43
2022/07/05 13:46:10;;;;;;;;;;;26.90;59.50;;;;;;5044836;28;87096;-42
2022/07/05 13:48:36;;;;;;;;;;;26.90;59.50;;;;;;5045459;27;88894;-42
2022/07/05 13:51:02;;;;;;;;;;;26.90;59.50;;;;;;5045316;28;88326;-43
2022/07/05 13:53:27;;;;;;;;;;;26.90;59.40;;;;;;5045377;28;87466;-41
2022/07/05 13:55:53;;;;;;;;;;;26.90;59.40;;;;;;5047975;28;87064;-43
2022/07/05 13:58:18;;;;;;;;;;;27.00;59.50;;;;;;5045227;28;86941;-42
2022/07/05 14:00:44;;;;;;;;;;;27.00;59.40;;;;;;5045657;27;87349;-41
2022/07/05 14:03:09;;;;;;;;;;;27.00;59.40;;;;;;5045036;28;88194;-42
2022/07/05 14:05:35;;;;;;;;;;;27.00;59.40;;;;;;5045524;28;87116;-43
2022/07/05 14:08:00;;;;;;;;;;;27.00;59.40;;;;;;5044880;28;87927;-43
2022/07/05 14:10:26;;;;;;;;;;;27.10;59.50;;;;;;5044947;28;88258;-43
2022/07/05 14:12:51;;;;;;;;;;;27.10;59.40;;;;;;5045177;28;87146;-43
2022/07/05 14:15:17;;;;;;;;;;;27.10;59.40;;;;;;5044927;27;88797;-44
2022/07/05 14:17:43;;;;;;;;;;;27.10;59.40;;;;;;5047494;28;88033;-44
2022/07/05 14:20:09;;;;;;;;;;;27.20;59.50;;;;;;5045109;28;87557;-43
2022/07/05 14:22:35;;;;;;;;;;;27.20;59.40;;;;;;5044759;28;87855;-43
2022/07/05 14:25:00;;;;;;;;;;;27.20;59.50;;;;;;5045204;28;88297;-43
2022/07/05 14:27:26;;;;;;;;;;;27.30;59.60;;;;;;5045150;28;86975;-44